createdAt,value
2018-03-02T00:00:21.630Z,1.10
2018-03-02T00:02:50.172Z,1.20
2018-03-02T00:05:18.799Z,1.10
2018-03-02T00:07:49.404Z,1.10
2018-03-02T00:10:19.023Z,1.10
2018-03-02T00:12:46.677Z,1.20
2018-03-02T00:15:14.303Z,1.33
2018-03-02T00:17:42.647Z,1.10
2018-03-02T00:20:10.744Z,0.97
2018-03-02T00:22:39.406Z,0.90
2018-03-02T00:25:08.690Z,1.07
2018-03-02T00:27:37.051Z,1.50
2018-03-02T00:30:06.791Z,1.17
2018-03-02T00:32:35.227Z,1.30
2018-03-02T00:35:04.737Z,1.13
2018-03-02T00:37:33.724Z,1.20
2018-03-02T00:40:03.745Z,1.10
2018-03-02T00:42:32.020Z,1.13
2018-03-02T00:45:01.524Z,1.17
2018-03-02T00:47:29.805Z,1.17
2018-03-02T00:49:59.631Z,1.30
2018-03-02T00:52:28.702Z,1.07
2018-03-02T00:54:57.542Z,1.13
2018-03-02T00:57:26.684Z,1.10
2018-03-02T00:59:55.475Z,1.23
2018-03-02T01:02:24.730Z,1.37
2018-03-02T01:04:53.457Z,1.00
2018-03-02T01:07:22.674Z,1.03
2018-03-02T01:09:52.233Z,1.10
2018-03-02T01:12:21.044Z,0.90
2018-03-02T01:14:50.139Z,1.10
2018-03-02T01:17:19.129Z,1.00
2018-03-02T01:19:47.915Z,1.23
2018-03-02T01:22:16.370Z,1.10
2018-03-02T01:24:45.269Z,1.20
2018-03-02T01:27:14.493Z,1.10
2018-03-02T01:29:44.674Z,1.40
2018-03-02T01:32:13.285Z,1.27
2018-03-02T01:34:43.195Z,1.00
2018-03-02T01:37:10.804Z,1.30
2018-03-02T01:39:38.734Z,1.27
2018-03-02T01:42:06.357Z,1.20
2018-03-02T01:44:33.940Z,1.10
2018-03-02T01:47:01.517Z,1.20
2018-03-02T01:49:29.271Z,1.10
2018-03-02T01:51:57.035Z,1.00
2018-03-02T01:54:24.624Z,1.17
2018-03-02T01:56:52.196Z,1.50
2018-03-02T01:59:20.538Z,1.47
2018-03-02T02:01:48.143Z,1.00
2018-03-02T02:04:16.487Z,1.10
2018-03-02T02:06:44.064Z,1.10
2018-03-02T02:09:11.745Z,1.17
2018-03-02T02:11:39.567Z,1.30
2018-03-02T02:14:07.140Z,1.23
2018-03-02T02:16:35.486Z,1.20
2018-03-02T02:19:03.079Z,1.37
2018-03-02T02:21:31.416Z,1.13
2018-03-02T02:23:58.980Z,1.30
2018-03-02T02:26:26.546Z,1.50
2018-03-02T02:28:54.123Z,1.30
2018-03-02T02:31:21.705Z,1.50
2018-03-02T02:33:49.287Z,1.10
2018-03-02T02:36:16.851Z,1.20
2018-03-02T02:38:44.420Z,1.23
2018-03-02T02:41:11.991Z,1.20
2018-03-02T02:43:39.555Z,1.10
2018-03-02T02:46:07.128Z,1.10
2018-03-02T02:48:35.472Z,1.17
2018-03-02T02:51:03.058Z,1.23
2018-03-02T02:53:30.615Z,1.20
2018-03-02T02:55:58.208Z,1.20
2018-03-02T02:58:25.778Z,1.20
2018-03-02T03:00:53.356Z,1.33
2018-03-02T03:03:20.921Z,1.20
2018-03-02T03:05:48.507Z,1.20
2018-03-02T03:08:16.130Z,1.40
2018-03-02T03:10:43.731Z,1.10
2018-03-02T03:13:11.291Z,1.10
2018-03-02T03:15:39.316Z,1.20
2018-03-02T03:18:06.988Z,1.37
2018-03-02T03:20:34.647Z,1.20
2018-03-02T03:23:02.307Z,1.40
2018-03-02T03:25:29.866Z,1.10
2018-03-02T03:27:57.455Z,1.40
2018-03-02T03:30:25.014Z,1.27
2018-03-02T03:32:52.607Z,1.27
2018-03-02T03:35:20.176Z,1.40
2018-03-02T03:37:47.764Z,1.50
2018-03-02T03:40:15.319Z,1.20
2018-03-02T03:42:42.911Z,1.20
2018-03-02T03:45:11.366Z,1.63
2018-03-02T03:47:39.195Z,1.37
2018-03-02T03:50:06.774Z,1.20
2018-03-02T03:52:34.532Z,1.30
2018-03-02T03:55:02.136Z,1.30
2018-03-02T03:57:30.459Z,0.97
2018-03-02T03:59:58.025Z,1.30
2018-03-02T04:02:25.583Z,1.20
2018-03-02T04:04:53.140Z,1.40
2018-03-02T04:07:20.749Z,1.20
2018-03-02T04:09:49.123Z,1.20
2018-03-02T04:12:17.543Z,1.43
2018-03-02T04:14:45.106Z,1.30
2018-03-02T04:17:12.662Z,1.13
2018-03-02T04:19:40.247Z,1.60
2018-03-02T04:22:09.347Z,1.30
2018-03-02T04:24:36.935Z,1.40
2018-03-02T04:27:04.507Z,1.20
2018-03-02T04:29:32.082Z,1.40
2018-03-02T04:31:59.648Z,1.20
2018-03-02T04:34:27.278Z,1.20
2018-03-02T04:36:54.839Z,1.57
2018-03-02T04:39:22.431Z,1.40
2018-03-02T04:41:49.991Z,1.23
2018-03-02T04:44:17.579Z,1.30
2018-03-02T04:46:45.180Z,1.30
2018-03-02T04:49:12.804Z,1.40
2018-03-02T04:51:41.127Z,1.57
2018-03-02T04:54:08.712Z,1.60
2018-03-02T04:56:36.280Z,1.27
2018-03-02T04:59:03.875Z,1.50
2018-03-02T05:01:31.477Z,1.20
2018-03-02T05:03:59.100Z,1.60
2018-03-02T05:06:26.666Z,1.23
2018-03-02T05:09:54.383Z,1.10
2018-03-02T05:12:21.950Z,1.50
2018-03-02T05:14:50.527Z,1.40
2018-03-02T05:17:18.350Z,1.50
2018-03-02T05:19:46.415Z,1.53
2018-03-02T05:22:14.043Z,1.40
2018-03-02T05:24:42.389Z,1.23
2018-03-02T05:27:10.031Z,1.20
2018-03-02T05:29:37.804Z,1.17
2018-03-02T05:32:05.390Z,1.30
2018-03-02T05:34:33.718Z,1.40
2018-03-02T05:37:01.288Z,1.70
2018-03-02T05:39:28.896Z,1.43
2018-03-02T05:41:58.663Z,1.23
2018-03-02T05:44:26.231Z,1.60
2018-03-02T05:46:54.058Z,1.10
2018-03-02T05:49:21.817Z,1.47
2018-03-02T05:51:49.402Z,1.40
2018-03-02T05:54:16.975Z,1.20
2018-03-02T05:56:44.800Z,1.40
2018-03-02T05:59:12.597Z,1.40
2018-03-02T06:01:40.202Z,1.43
2018-03-02T06:04:08.496Z,1.40
2018-03-02T06:06:38.000Z,1.43
2018-03-02T06:09:05.643Z,1.40
2018-03-02T06:11:33.266Z,1.37
2018-03-02T06:14:01.640Z,1.50
2018-03-02T06:17:14.347Z,1.40
2018-03-02T06:19:41.950Z,1.40
2018-03-02T06:22:09.552Z,1.50
2018-03-02T06:24:37.347Z,1.50
2018-03-02T06:27:05.786Z,1.40
2018-03-02T06:29:33.415Z,1.47
2018-03-02T06:32:01.841Z,1.53
2018-03-02T06:34:29.444Z,1.57
2018-03-02T06:36:57.165Z,1.60
2018-03-02T06:39:24.881Z,1.50
2018-03-02T06:41:52.515Z,1.80
2018-03-02T06:44:20.882Z,1.33
2018-03-02T06:46:49.248Z,1.63
2018-03-02T06:49:16.873Z,1.60
2018-03-02T06:51:44.499Z,1.60
2018-03-02T06:54:12.182Z,1.30
2018-03-02T06:56:39.825Z,1.60
2018-03-02T06:59:07.423Z,1.50
2018-03-02T07:01:35.012Z,1.47
2018-03-02T07:04:03.355Z,1.60
2018-03-02T07:06:30.963Z,1.70
2018-03-02T07:08:59.347Z,1.80
2018-03-02T07:11:26.924Z,1.60
2018-03-02T07:13:54.605Z,1.47
2018-03-02T07:16:22.215Z,1.70
2018-03-02T07:18:49.839Z,1.57
2018-03-02T07:21:17.713Z,1.30
2018-03-02T07:23:45.329Z,1.60
2018-03-02T07:26:12.966Z,1.40
2018-03-02T07:28:40.638Z,1.37
2018-03-02T07:31:08.273Z,1.67
2018-03-02T07:33:36.741Z,1.37
2018-03-02T07:36:05.106Z,1.67
2018-03-02T07:38:32.713Z,1.77
2018-03-02T07:41:00.369Z,1.37
2018-03-02T07:43:28.557Z,1.60
2018-03-02T07:45:56.174Z,1.50
2018-03-02T07:48:24.583Z,1.53
2018-03-02T07:50:52.212Z,1.73
2018-03-02T07:53:20.578Z,1.53
2018-03-02T07:55:48.210Z,1.30
2018-03-02T07:58:15.789Z,1.40
2018-03-02T08:00:43.355Z,1.50
2018-03-02T08:03:10.977Z,1.30
2018-03-02T08:05:38.724Z,1.40
2018-03-02T08:08:06.340Z,1.40
2018-03-02T08:10:33.964Z,1.47
2018-03-02T08:13:01.598Z,1.70
2018-03-02T08:15:29.185Z,1.40
2018-03-02T08:17:57.591Z,1.80
2018-03-02T08:20:25.235Z,1.50
2018-03-02T08:22:52.820Z,1.67
2018-03-02T08:25:21.171Z,1.50
2018-03-02T08:27:48.840Z,1.50
2018-03-02T08:30:16.424Z,1.60
2018-03-02T08:32:44.008Z,1.80
2018-03-02T08:35:11.620Z,1.70
2018-03-02T08:37:39.444Z,1.53
2018-03-02T08:40:07.966Z,1.80
2018-03-02T08:42:35.650Z,1.70
2018-03-02T08:45:04.033Z,1.70
2018-03-02T08:47:31.729Z,1.80
2018-03-02T08:49:59.329Z,1.43
2018-03-02T08:52:27.549Z,1.70
2018-03-02T08:54:55.240Z,1.70
2018-03-02T08:57:22.867Z,1.90
2018-03-02T08:59:50.473Z,1.70
2018-03-02T09:02:18.070Z,1.60
2018-03-02T09:04:45.784Z,1.60
2018-03-02T09:07:13.390Z,1.80
2018-03-02T09:09:40.997Z,1.83
2018-03-02T09:12:08.586Z,1.40
2018-03-02T09:14:37.073Z,1.40
2018-03-02T09:17:05.462Z,1.73
2018-03-02T09:19:33.020Z,1.50
2018-03-02T09:22:00.645Z,1.70
2018-03-02T09:24:28.225Z,1.67
2018-03-02T09:28:35.470Z,1.80
2018-03-02T09:31:04.219Z,2.10
2018-03-02T09:33:34.698Z,1.80
2018-03-02T09:36:03.263Z,1.50
2018-03-02T09:38:30.834Z,1.60
2018-03-02T09:40:58.427Z,1.53
2018-03-02T09:43:26.863Z,1.70
2018-03-02T09:45:54.435Z,1.60
2018-03-02T09:48:22.027Z,1.60
2018-03-02T09:50:49.591Z,1.80
2018-03-02T09:53:17.187Z,1.53
2018-03-02T09:55:44.844Z,1.60
2018-03-02T09:58:12.431Z,1.60
2018-03-02T10:00:39.999Z,1.70
2018-03-02T10:03:08.578Z,1.90
2018-03-02T10:05:36.644Z,1.53
2018-03-02T10:08:04.281Z,1.87
2018-03-02T10:10:31.930Z,1.73
2018-03-02T10:12:59.648Z,1.80
2018-03-02T10:15:28.568Z,1.50
2018-03-02T10:17:56.156Z,1.70
2018-03-02T10:20:24.095Z,1.70
2018-03-02T10:22:51.731Z,1.80
2018-03-02T10:25:19.384Z,1.73
2018-03-02T10:27:46.968Z,2.17
2018-03-02T10:30:14.596Z,1.57
2018-03-02T10:32:42.185Z,1.80
2018-03-02T10:35:09.818Z,1.67
2018-03-02T10:37:37.487Z,2.20
2018-03-02T10:40:05.101Z,1.60
2018-03-02T10:42:32.675Z,1.80
2018-03-02T10:45:00.248Z,1.77
2018-03-02T10:47:28.561Z,1.90
2018-03-02T10:49:56.250Z,1.73
2018-03-02T10:52:23.879Z,1.70
2018-03-02T10:54:51.487Z,1.90
2018-03-02T10:57:19.080Z,2.00
2018-03-02T10:59:46.638Z,1.70
2018-03-02T11:02:20.362Z,1.73
2018-03-02T11:04:48.044Z,1.80
2018-03-02T11:07:16.447Z,1.90
2018-03-02T11:09:44.832Z,1.73
2018-03-02T11:12:12.452Z,1.87
2018-03-02T11:14:40.036Z,1.70
2018-03-02T11:17:07.623Z,1.53
2018-03-02T11:19:35.794Z,1.80
2018-03-02T11:22:03.429Z,1.70
2018-03-02T11:24:31.019Z,1.70
2018-03-02T11:26:59.496Z,1.60
2018-03-02T11:29:27.135Z,2.00
2018-03-02T11:31:55.596Z,1.83
2018-03-02T11:34:23.956Z,2.03
2018-03-02T11:36:51.595Z,1.87
2018-03-02T11:39:19.263Z,2.10
2018-03-02T11:41:46.928Z,1.70
2018-03-02T11:44:14.571Z,1.67
2018-03-02T11:46:42.156Z,1.80
2018-03-02T11:49:10.183Z,1.93
2018-03-02T11:51:38.286Z,1.87
2018-03-02T11:54:05.875Z,1.67
2018-03-02T11:56:33.468Z,2.20
2018-03-02T11:59:01.090Z,1.73
2018-03-02T12:01:28.686Z,2.17
2018-03-02T12:03:56.317Z,1.77
2018-03-02T12:06:25.900Z,1.60
2018-03-02T12:08:53.576Z,2.00
2018-03-02T12:11:21.227Z,1.83
2018-03-02T12:13:48.815Z,1.60
2018-03-02T12:16:17.189Z,2.00
2018-03-02T12:18:45.620Z,2.00
2018-03-02T12:21:13.185Z,1.70
2018-03-02T12:23:40.808Z,1.97
2018-03-02T12:26:08.422Z,1.80
2018-03-02T12:28:36.084Z,1.90
2018-03-02T12:31:03.954Z,1.90
2018-03-02T12:33:32.330Z,2.00
2018-03-02T12:35:59.925Z,1.97
2018-03-02T12:38:27.519Z,1.97
2018-03-02T12:40:55.313Z,2.00
2018-03-02T12:43:23.720Z,2.03
2018-03-02T12:45:51.418Z,2.00
2018-03-02T12:48:19.062Z,1.83
2018-03-02T12:50:46.649Z,1.70
2018-03-02T12:53:14.330Z,1.90
2018-03-02T12:55:41.969Z,2.10
2018-03-02T12:58:10.504Z,2.07
2018-03-02T13:00:38.797Z,1.87
2018-03-02T13:03:06.426Z,1.90
2018-03-02T13:05:34.847Z,1.93
2018-03-02T13:08:02.433Z,2.00
2018-03-02T13:10:30.010Z,1.90
2018-03-02T13:12:58.395Z,1.90
2018-03-02T13:15:26.096Z,1.90
2018-03-02T13:17:53.715Z,2.07
2018-03-02T13:20:22.976Z,2.03
2018-03-02T13:22:50.586Z,1.80
2018-03-02T13:25:18.157Z,1.90
2018-03-02T13:27:57.770Z,1.90
2018-03-02T13:30:25.452Z,2.00
2018-03-02T13:33:04.998Z,2.00
2018-03-02T13:35:32.595Z,1.93
2018-03-02T13:38:00.199Z,1.97
2018-03-02T13:40:39.639Z,1.70
2018-03-02T13:45:22.088Z,1.90
2018-03-02T13:50:57.764Z,1.93
2018-03-02T13:53:25.343Z,1.93
2018-03-02T13:55:53.007Z,1.87
2018-03-02T13:58:20.821Z,1.90
2018-03-02T14:00:48.564Z,2.20
2018-03-02T14:03:28.076Z,1.83
2018-03-02T14:05:56.022Z,2.20
2018-03-02T14:08:23.588Z,2.13
2018-03-02T14:10:52.058Z,1.83
2018-03-02T14:13:19.620Z,2.00
2018-03-02T14:15:47.311Z,2.13
2018-03-02T14:18:14.953Z,1.77
2018-03-02T14:20:43.325Z,1.90
2018-03-02T14:23:10.912Z,1.83
2018-03-02T14:25:39.112Z,2.43
2018-03-02T14:28:06.727Z,2.10
2018-03-02T14:30:35.350Z,2.03
2018-03-02T14:33:03.009Z,1.80
2018-03-02T14:35:30.700Z,1.90
2018-03-02T14:37:58.323Z,2.00
2018-03-02T14:40:25.924Z,2.20
2018-03-02T14:42:54.112Z,2.30
2018-03-02T14:45:21.813Z,2.30
2018-03-02T14:47:49.372Z,1.90
2018-03-02T14:50:16.959Z,2.00
2018-03-02T14:52:45.776Z,1.87
2018-03-02T14:55:13.360Z,1.80
2018-03-02T14:57:41.679Z,2.30
2018-03-02T15:00:09.340Z,2.10
2018-03-02T15:02:36.967Z,1.90
2018-03-02T15:05:04.552Z,2.10
2018-03-02T15:07:32.154Z,1.83
2018-03-02T15:09:59.731Z,1.97
2018-03-02T15:12:28.060Z,1.97
2018-03-02T15:14:55.623Z,1.90
2018-03-02T15:17:23.199Z,2.00
2018-03-02T15:19:50.783Z,1.97
2018-03-02T15:22:18.383Z,2.00
2018-03-02T15:24:45.983Z,1.77
2018-03-02T15:27:15.303Z,2.50
2018-03-02T15:29:43.808Z,2.03
2018-03-02T15:32:12.387Z,2.23
2018-03-02T15:34:40.415Z,2.27
2018-03-02T15:37:10.288Z,2.40
2018-03-02T15:39:40.717Z,2.10
2018-03-02T15:42:08.363Z,2.23
2018-03-02T15:44:36.016Z,2.10
2018-03-02T15:47:04.220Z,2.23
2018-03-02T15:49:32.800Z,2.13
2018-03-02T15:52:00.404Z,2.50
2018-03-02T15:54:28.371Z,2.00
2018-03-02T15:56:55.955Z,2.30
2018-03-02T15:59:23.523Z,1.90
2018-03-02T16:01:51.111Z,2.40
2018-03-02T16:04:18.695Z,2.50
2018-03-02T16:06:47.151Z,2.10
2018-03-02T16:09:14.736Z,2.03
2018-03-02T16:11:42.364Z,2.00
2018-03-02T16:14:10.161Z,2.00
2018-03-02T16:16:38.099Z,2.13
2018-03-02T16:19:05.731Z,2.30
2018-03-02T16:21:33.788Z,2.00
2018-03-02T16:24:01.461Z,2.30
2018-03-02T16:26:29.127Z,2.10
2018-03-02T16:28:56.697Z,2.40
2018-03-02T16:31:25.784Z,1.73
2018-03-02T16:33:53.367Z,2.10
2018-03-02T16:36:20.963Z,2.30
2018-03-02T16:38:48.526Z,2.40
2018-03-02T16:41:16.206Z,2.00
2018-03-02T16:43:43.787Z,1.83
2018-03-02T16:46:11.419Z,2.33
2018-03-02T16:48:39.060Z,2.40
2018-03-02T16:51:06.647Z,2.23
2018-03-02T16:53:34.236Z,2.10
2018-03-02T16:56:02.061Z,2.27
2018-03-02T16:58:29.648Z,1.70
2018-03-02T17:00:57.260Z,2.40
2018-03-02T17:03:24.953Z,2.23
2018-03-02T17:05:52.535Z,2.40
2018-03-02T17:08:20.876Z,2.17
2018-03-02T17:10:48.499Z,1.93
2018-03-02T17:13:16.056Z,2.10
2018-03-02T17:15:43.644Z,2.10
2018-03-02T17:18:11.235Z,2.60
2018-03-02T17:20:39.031Z,2.23
2018-03-02T17:23:06.623Z,2.10
2018-03-02T17:25:34.410Z,2.23
2018-03-02T17:28:02.156Z,2.27
2018-03-02T17:30:29.728Z,2.40
2018-03-02T17:32:57.358Z,2.23
2018-03-02T17:35:24.924Z,2.33
2018-03-02T17:37:52.499Z,2.33
2018-03-02T17:40:20.107Z,2.40
2018-03-02T17:42:47.704Z,2.20
2018-03-02T17:45:17.203Z,2.10
2018-03-02T17:47:50.536Z,2.00
2018-03-02T17:50:19.208Z,2.40
2018-03-02T17:52:56.561Z,2.10
2018-03-02T17:55:25.156Z,2.20
2018-03-02T17:57:53.010Z,2.20
2018-03-02T18:00:20.567Z,2.20
2018-03-02T18:02:48.128Z,2.23
2018-03-02T18:05:15.690Z,2.37
2018-03-02T18:07:43.254Z,2.17
2018-03-02T18:10:10.815Z,2.37
2018-03-02T18:12:38.695Z,2.50
2018-03-02T18:15:06.265Z,2.20
2018-03-02T18:17:35.003Z,2.30
2018-03-02T18:20:02.616Z,2.20
2018-03-02T18:22:30.969Z,2.20
2018-03-02T18:24:58.537Z,2.07
2018-03-02T18:27:26.127Z,2.40
2018-03-02T18:29:53.748Z,2.00
2018-03-02T18:32:21.538Z,2.47
2018-03-02T18:34:49.159Z,2.40
2018-03-02T18:37:16.910Z,2.27
2018-03-02T18:39:44.483Z,2.27
2018-03-02T18:42:12.074Z,2.00
2018-03-02T18:44:40.416Z,2.10
2018-03-02T18:47:08.000Z,2.30
2018-03-02T18:49:36.386Z,2.37
2018-03-02T18:52:04.822Z,2.30
2018-03-02T18:54:32.411Z,2.23
2018-03-02T18:56:59.991Z,2.13
2018-03-02T18:59:28.328Z,1.83
2018-03-02T19:01:56.174Z,2.20
2018-03-02T19:04:23.741Z,2.67
2018-03-02T19:06:51.488Z,2.17
2018-03-02T19:09:19.308Z,2.23
2018-03-02T19:11:47.655Z,2.30
2018-03-02T19:14:15.268Z,2.20
2018-03-02T19:16:42.889Z,2.40
2018-03-02T19:19:10.473Z,2.00
2018-03-02T19:21:38.480Z,2.33
2018-03-02T19:24:06.078Z,2.50
2018-03-02T19:26:34.713Z,2.00
2018-03-02T19:29:02.302Z,2.20
2018-03-02T19:31:32.706Z,2.27
2018-03-02T19:34:10.438Z,2.40
2018-03-02T19:36:43.749Z,2.23
2018-03-02T19:39:18.987Z,2.10
2018-03-02T19:41:50.288Z,2.53
2018-03-02T19:44:20.894Z,2.37
2018-03-02T19:47:01.098Z,2.40
2018-03-02T19:49:36.338Z,2.47
2018-03-02T19:52:08.348Z,2.37
2018-03-02T19:54:47.858Z,2.30
2018-03-02T19:57:24.139Z,2.60
2018-03-02T20:02:43.199Z,2.17
2018-03-02T20:05:17.565Z,2.70
2018-03-02T20:07:53.471Z,2.50
2018-03-02T20:10:27.072Z,2.10
2018-03-02T20:13:02.109Z,2.57
2018-03-02T20:15:42.908Z,2.40
2018-03-02T20:20:57.416Z,2.30
2018-03-02T20:23:26.950Z,2.40
2018-03-02T20:26:03.724Z,2.40
2018-03-02T20:28:33.413Z,2.40
2018-03-02T20:31:04.617Z,2.50
2018-03-02T20:33:33.298Z,2.57
2018-03-02T20:36:10.750Z,2.50
2018-03-02T20:38:48.220Z,2.30
2018-03-02T20:41:22.456Z,2.67
2018-03-02T20:43:53.019Z,2.50
2018-03-02T20:46:22.940Z,2.70
2018-03-02T20:48:53.224Z,2.27
2018-03-02T20:51:25.592Z,2.60
2018-03-02T20:53:57.176Z,2.40
2018-03-02T20:56:31.402Z,2.50
2018-03-02T20:59:03.673Z,2.40
2018-03-02T21:01:36.899Z,2.03
2018-03-02T21:04:11.338Z,2.37
2018-03-02T21:06:48.624Z,2.53
2018-03-02T21:09:27.219Z,2.40
2018-03-02T21:12:00.127Z,2.57
2018-03-02T21:14:32.855Z,2.67
2018-03-02T21:17:05.892Z,2.60
2018-03-02T21:19:38.264Z,2.40
2018-03-02T21:22:12.529Z,2.40
2018-03-02T21:24:42.473Z,2.53
2018-03-02T21:27:15.543Z,2.37
2018-03-02T21:29:46.879Z,2.67
2018-03-02T21:32:21.893Z,2.30
2018-03-02T21:34:55.309Z,2.63
2018-03-02T21:37:30.698Z,2.60
2018-03-02T21:40:03.765Z,2.60
2018-03-02T21:42:40.270Z,2.80
2018-03-02T21:45:13.136Z,2.50
2018-03-02T21:47:47.614Z,2.50
2018-03-02T21:50:26.912Z,2.90
2018-03-02T21:52:59.125Z,2.67
2018-03-02T21:55:31.440Z,2.70
2018-03-02T21:58:02.628Z,2.50
2018-03-02T22:00:36.594Z,2.53
2018-03-02T22:03:08.450Z,2.60
2018-03-02T22:05:40.461Z,2.47
2018-03-02T22:08:16.724Z,2.43
2018-03-02T22:10:57.511Z,2.60
2018-03-02T22:13:30.580Z,2.60
2018-03-02T22:16:05.040Z,2.53
2018-03-02T22:18:48.100Z,2.50
2018-03-02T22:21:20.946Z,2.60
2018-03-02T22:23:54.200Z,2.50
2018-03-02T22:26:27.394Z,2.63
2018-03-02T22:28:58.638Z,2.70
2018-03-02T22:31:31.417Z,2.70
2018-03-02T22:34:00.678Z,2.70
2018-03-02T22:36:35.445Z,2.60
2018-03-02T22:39:09.352Z,2.70
2018-03-02T22:41:45.614Z,2.20
2018-03-02T22:44:19.727Z,2.47
2018-03-02T22:46:52.315Z,2.40
2018-03-02T22:49:31.638Z,2.60
2018-03-02T22:52:07.799Z,2.70
2018-03-02T22:54:40.572Z,2.63
2018-03-02T22:57:11.750Z,2.37
2018-03-02T22:59:42.558Z,2.80
2018-03-02T23:02:15.443Z,2.57
2018-03-02T23:04:46.604Z,3.10
2018-03-02T23:07:21.308Z,2.30
2018-03-02T23:09:51.948Z,2.53
2018-03-02T23:12:28.498Z,2.57
2018-03-02T23:15:00.503Z,2.67
2018-03-02T23:17:37.559Z,2.73
2018-03-02T23:20:11.182Z,2.80
2018-03-02T23:22:47.147Z,2.60
2018-03-02T23:25:21.943Z,2.60
2018-03-02T23:27:55.345Z,2.30
2018-03-02T23:30:25.765Z,2.63
2018-03-02T23:33:01.929Z,2.73
2018-03-02T23:35:32.593Z,2.40
2018-03-02T23:40:48.769Z,2.60
2018-03-02T23:43:22.695Z,2.50
2018-03-02T23:45:55.048Z,2.50
2018-03-02T23:48:29.207Z,2.70
2018-03-02T23:51:02.447Z,2.80
2018-03-02T23:53:40.066Z,2.40
2018-03-02T23:56:16.411Z,2.53
2018-03-02T23:58:48.858Z,2.60
